sensor_id;sensor_type;location;lat;lon;timestamp;P1;durP1;ratioP1;P2;durP2;ratioP2
6665;SDS011;3369;49.906;8.598;2023-09-08T00:01:57;4.50;;;4.10;;
6665;SDS011;3369;49.906;8.598;2023-09-08T00:04:22;5.30;;;4.60;;
6665;SDS011;3369;49.906;8.598;2023-09-08T00:06:48;5.80;;;5.17;;
6665;SDS011;3369;49.906;8.598;2023-09-08T00:09:14;5.10;;;4.60;;
6665;SDS011;3369;49.906;8.598;2023-09-08T00:11:40;4.80;;;4.40;;
6665;SDS011;3369;49.906;8.598;2023-09-08T00:14:06;5.50;;;4.70;;
6665;SDS011;3369;49.906;8.598;2023-09-08T00:16:32;4.43;;;4.03;;
6665;SDS011;3369;49.906;8.598;2023-09-08T00:18:57;4.33;;;3.93;;
6665;SDS011;3369;49.906;8.598;2023-09-08T00:21:24;4.20;;;3.80;;
6665;SDS011;3369;49.906;8.598;2023-09-08T00:23:50;4.40;;;4.00;;
6665;SDS011;3369;49.906;8.598;2023-09-08T00:26:19;5.17;;;4.77;;
6665;SDS011;3369;49.906;8.598;2023-09-08T00:28:46;5.37;;;4.87;;
6665;SDS011;3369;49.906;8.598;2023-09-08T00:31:12;4.90;;;4.23;;
6665;SDS011;3369;49.906;8.598;2023-09-08T00:33:38;4.70;;;4.20;;
6665;SDS011;3369;49.906;8.598;2023-09-08T00:36:05;5.43;;;4.93;;
6665;SDS011;3369;49.906;8.598;2023-09-08T00:38:31;5.50;;;4.80;;
6665;SDS011;3369;49.906;8.598;2023-09-08T00:40:57;4.77;;;4.37;;
6665;SDS011;3369;49.906;8.598;2023-09-08T00:43:24;5.00;;;4.40;;
6665;SDS011;3369;49.906;8.598;2023-09-08T00:45:49;4.93;;;4.20;;
6665;SDS011;3369;49.906;8.598;2023-09-08T00:48:15;5.57;;;5.07;;
6665;SDS011;3369;49.906;8.598;2023-09-08T00:50:41;4.93;;;4.43;;
6665;SDS011;3369;49.906;8.598;2023-09-08T00:53:07;4.60;;;4.20;;
6665;SDS011;3369;49.906;8.598;2023-09-08T00:55:33;4.83;;;4.33;;
6665;SDS011;3369;49.906;8.598;2023-09-08T00:57:59;6.17;;;4.57;;
6665;SDS011;3369;49.906;8.598;2023-09-08T01:00:26;4.73;;;4.33;;
6665;SDS011;3369;49.906;8.598;2023-09-08T01:02:51;4.97;;;4.57;;
6665;SDS011;3369;49.906;8.598;2023-09-08T01:05:17;4.83;;;4.40;;
6665;SDS011;3369;49.906;8.598;2023-09-08T01:07:45;5.03;;;4.37;;
6665;SDS011;3369;49.906;8.598;2023-09-08T01:10:12;6.00;;;5.40;;
6665;SDS011;3369;49.906;8.598;2023-09-08T01:12:39;6.47;;;4.90;;
6665;SDS011;3369;49.906;8.598;2023-09-08T01:15:05;4.73;;;4.10;;
6665;SDS011;3369;49.906;8.598;2023-09-08T01:17:31;5.10;;;4.60;;
6665;SDS011;3369;49.906;8.598;2023-09-08T01:19:59;6.63;;;4.53;;
6665;SDS011;3369;49.906;8.598;2023-09-08T01:25:21;4.43;;;4.03;;
6665;SDS011;3369;49.906;8.598;2023-09-08T01:27:49;5.27;;;4.73;;
6665;SDS011;3369;49.906;8.598;2023-09-08T01:30:17;5.33;;;4.83;;
6665;SDS011;3369;49.906;8.598;2023-09-08T01:32:44;6.33;;;5.17;;
6665;SDS011;3369;49.906;8.598;2023-09-08T01:35:10;4.97;;;4.47;;
6665;SDS011;3369;49.906;8.598;2023-09-08T01:37:39;5.53;;;5.03;;
6665;SDS011;3369;49.906;8.598;2023-09-08T01:40:11;4.43;;;4.03;;
6665;SDS011;3369;49.906;8.598;2023-09-08T01:42:37;4.80;;;4.30;;
6665;SDS011;3369;49.906;8.598;2023-09-08T01:45:03;5.37;;;4.87;;
6665;SDS011;3369;49.906;8.598;2023-09-08T01:47:30;5.30;;;4.80;;
6665;SDS011;3369;49.906;8.598;2023-09-08T01:49:55;5.00;;;4.60;;
6665;SDS011;3369;49.906;8.598;2023-09-08T01:52:21;4.83;;;4.33;;
6665;SDS011;3369;49.906;8.598;2023-09-08T01:54:47;6.83;;;4.90;;
6665;SDS011;3369;49.906;8.598;2023-09-08T01:57:13;5.23;;;4.73;;
6665;SDS011;3369;49.906;8.598;2023-09-08T01:59:38;5.30;;;4.80;;
6665;SDS011;3369;49.906;8.598;2023-09-08T02:02:05;5.67;;;5.17;;
6665;SDS011;3369;49.906;8.598;2023-09-08T02:04:31;5.33;;;4.83;;
6665;SDS011;3369;49.906;8.598;2023-09-08T02:06:57;5.73;;;4.70;;
6665;SDS011;3369;49.906;8.598;2023-09-08T02:09:29;5.07;;;4.57;;
6665;SDS011;3369;49.906;8.598;2023-09-08T02:11:56;5.70;;;4.57;;
6665;SDS011;3369;49.906;8.598;2023-09-08T02:14:22;5.13;;;4.63;;
6665;SDS011;3369;49.906;8.598;2023-09-08T02:16:47;4.93;;;4.50;;
6665;SDS011;3369;49.906;8.598;2023-09-08T02:19:13;4.50;;;4.10;;
6665;SDS011;3369;49.906;8.598;2023-09-08T02:21:38;4.87;;;4.47;;
6665;SDS011;3369;49.906;8.598;2023-09-08T02:24:04;5.67;;;4.77;;
6665;SDS011;3369;49.906;8.598;2023-09-08T02:26:30;6.00;;;5.37;;
6665;SDS011;3369;49.906;8.598;2023-09-08T02:28:58;4.73;;;4.37;;
6665;SDS011;3369;49.906;8.598;2023-09-08T02:31:24;5.00;;;4.60;;
6665;SDS011;3369;49.906;8.598;2023-09-08T02:33:51;4.73;;;4.33;;
6665;SDS011;3369;49.906;8.598;2023-09-08T02:36:16;5.20;;;4.70;;
6665;SDS011;3369;49.906;8.598;2023-09-08T02:38:42;5.30;;;4.87;;
6665;SDS011;3369;49.906;8.598;2023-09-08T02:41:08;5.83;;;4.87;;
6665;SDS011;3369;49.906;8.598;2023-09-08T02:43:33;5.07;;;4.57;;
6665;SDS011;3369;49.906;8.598;2023-09-08T02:45:59;4.97;;;4.57;;
6665;SDS011;3369;49.906;8.598;2023-09-08T02:48:24;4.50;;;4.10;;
6665;SDS011;3369;49.906;8.598;2023-09-08T02:50:50;5.07;;;4.67;;
6665;SDS011;3369;49.906;8.598;2023-09-08T02:53:17;4.70;;;4.30;;
6665;SDS011;3369;49.906;8.598;2023-09-08T02:55:42;5.00;;;4.60;;
6665;SDS011;3369;49.906;8.598;2023-09-08T02:58:08;4.63;;;4.23;;
6665;SDS011;3369;49.906;8.598;2023-09-08T03:00:33;4.57;;;4.17;;
6665;SDS011;3369;49.906;8.598;2023-09-08T03:02:59;4.47;;;4.07;;
6665;SDS011;3369;49.906;8.598;2023-09-08T03:05:25;4.60;;;4.20;;
6665;SDS011;3369;49.906;8.598;2023-09-08T03:07:50;5.20;;;4.30;;
6665;SDS011;3369;49.906;8.598;2023-09-08T03:10:16;4.73;;;4.33;;
6665;SDS011;3369;49.906;8.598;2023-09-08T03:12:42;5.20;;;4.80;;
6665;SDS011;3369;49.906;8.598;2023-09-08T03:15:08;4.77;;;4.27;;
6665;SDS011;3369;49.906;8.598;2023-09-08T03:17:34;5.10;;;4.43;;
6665;SDS011;3369;49.906;8.598;2023-09-08T03:19:59;4.67;;;4.13;;
6665;SDS011;3369;49.906;8.598;2023-09-08T03:22:25;4.27;;;3.97;;
6665;SDS011;3369;49.906;8.598;2023-09-08T03:24:51;5.23;;;4.73;;
6665;SDS011;3369;49.906;8.598;2023-09-08T03:27:17;5.47;;;4.33;;
6665;SDS011;3369;49.906;8.598;2023-09-08T03:29:43;4.67;;;4.37;;
6665;SDS011;3369;49.906;8.598;2023-09-08T03:32:08;5.10;;;4.37;;
6665;SDS011;3369;49.906;8.598;2023-09-08T03:34:34;4.53;;;4.13;;
6665;SDS011;3369;49.906;8.598;2023-09-08T03:37:00;4.30;;;3.97;;
6665;SDS011;3369;49.906;8.598;2023-09-08T03:39:25;4.70;;;4.30;;
6665;SDS011;3369;49.906;8.598;2023-09-08T03:41:51;5.00;;;4.57;;
6665;SDS011;3369;49.906;8.598;2023-09-08T03:44:16;4.90;;;4.40;;
6665;SDS011;3369;49.906;8.598;2023-09-08T03:46:42;4.93;;;4.53;;
6665;SDS011;3369;49.906;8.598;2023-09-08T03:49:08;5.37;;;4.87;;
6665;SDS011;3369;49.906;8.598;2023-09-08T03:51:33;5.70;;;5.03;;
6665;SDS011;3369;49.906;8.598;2023-09-08T03:53:59;5.37;;;4.87;;
6665;SDS011;3369;49.906;8.598;2023-09-08T03:56:25;5.40;;;4.90;;
6665;SDS011;3369;49.906;8.598;2023-09-08T03:58:51;4.97;;;4.57;;
6665;SDS011;3369;49.906;8.598;2023-09-08T04:01:16;5.03;;;4.57;;
6665;SDS011;3369;49.906;8.598;2023-09-08T04:03:42;5.07;;;4.63;;
6665;SDS011;3369;49.906;8.598;2023-09-08T04:06:08;5.50;;;5.00;;
6665;SDS011;3369;49.906;8.598;2023-09-08T04:08:34;5.53;;;5.03;;
6665;SDS011;3369;49.906;8.598;2023-09-08T04:11:00;5.53;;;4.90;;
6665;SDS011;3369;49.906;8.598;2023-09-08T04:13:25;5.57;;;5.07;;
6665;SDS011;3369;49.906;8.598;2023-09-08T04:15:51;6.43;;;5.00;;
6665;SDS011;3369;49.906;8.598;2023-09-08T04:18:16;4.97;;;4.57;;
6665;SDS011;3369;49.906;8.598;2023-09-08T04:20:42;5.37;;;4.87;;
6665;SDS011;3369;49.906;8.598;2023-09-08T04:23:08;6.37;;;4.90;;
6665;SDS011;3369;49.906;8.598;2023-09-08T04:25:34;5.77;;;5.00;;
6665;SDS011;3369;49.906;8.598;2023-09-08T04:28:01;5.50;;;4.93;;
6665;SDS011;3369;49.906;8.598;2023-09-08T04:30:27;5.37;;;4.97;;
6665;SDS011;3369;49.906;8.598;2023-09-08T04:32:52;6.73;;;5.03;;
6665;SDS011;3369;49.906;8.598;2023-09-08T04:35:18;7.10;;;5.70;;
6665;SDS011;3369;49.906;8.598;2023-09-08T04:37:44;7.80;;;5.70;;
6665;SDS011;3369;49.906;8.598;2023-09-08T04:40:09;6.37;;;5.73;;
6665;SDS011;3369;49.906;8.598;2023-09-08T04:42:35;8.00;;;5.33;;
6665;SDS011;3369;49.906;8.598;2023-09-08T04:45:01;5.67;;;5.07;;
6665;SDS011;3369;49.906;8.598;2023-09-08T04:47:26;5.80;;;5.07;;
6665;SDS011;3369;49.906;8.598;2023-09-08T04:49:52;7.17;;;5.40;;
6665;SDS011;3369;49.906;8.598;2023-09-08T04:52:18;5.47;;;4.87;;
6665;SDS011;3369;49.906;8.598;2023-09-08T04:54:43;5.87;;;4.50;;
6665;SDS011;3369;49.906;8.598;2023-09-08T04:57:09;4.50;;;4.10;;
6665;SDS011;3369;49.906;8.598;2023-09-08T04:59:35;4.93;;;4.53;;
6665;SDS011;3369;49.906;8.598;2023-09-08T05:02:04;5.03;;;4.53;;
6665;SDS011;3369;49.906;8.598;2023-09-08T05:04:29;5.00;;;4.60;;
6665;SDS011;3369;49.906;8.598;2023-09-08T05:06:55;4.90;;;4.50;;
6665;SDS011;3369;49.906;8.598;2023-09-08T05:09:20;5.10;;;4.60;;
6665;SDS011;3369;49.906;8.598;2023-09-08T05:11:46;4.70;;;4.30;;
6665;SDS011;3369;49.906;8.598;2023-09-08T05:14:12;4.60;;;4.20;;
6665;SDS011;3369;49.906;8.598;2023-09-08T05:16:37;4.70;;;4.30;;
6665;SDS011;3369;49.906;8.598;2023-09-08T05:19:10;4.53;;;4.13;;
6665;SDS011;3369;49.906;8.598;2023-09-08T05:21:36;4.37;;;3.97;;
6665;SDS011;3369;49.906;8.598;2023-09-08T05:24:02;4.40;;;4.03;;
6665;SDS011;3369;49.906;8.598;2023-09-08T05:26:28;5.00;;;4.50;;
6665;SDS011;3369;49.906;8.598;2023-09-08T05:28:54;5.33;;;4.83;;
6665;SDS011;3369;49.906;8.598;2023-09-08T05:31:20;4.70;;;4.30;;
6665;SDS011;3369;49.906;8.598;2023-09-08T05:33:46;4.87;;;4.20;;
6665;SDS011;3369;49.906;8.598;2023-09-08T05:36:11;4.73;;;4.20;;
6665;SDS011;3369;49.906;8.598;2023-09-08T05:38:37;4.33;;;4.03;;
6665;SDS011;3369;49.906;8.598;2023-09-08T05:41:03;5.37;;;4.87;;
6665;SDS011;3369;49.906;8.598;2023-09-08T05:43:28;5.10;;;4.60;;
6665;SDS011;3369;49.906;8.598;2023-09-08T05:45:54;4.90;;;4.50;;
6665;SDS011;3369;49.906;8.598;2023-09-08T05:48:19;5.23;;;4.73;;
6665;SDS011;3369;49.906;8.598;2023-09-08T05:50:45;5.93;;;5.40;;
6665;SDS011;3369;49.906;8.598;2023-09-08T05:53:10;5.47;;;4.60;;
6665;SDS011;3369;49.906;8.598;2023-09-08T05:55:36;5.70;;;4.80;;
6665;SDS011;3369;49.906;8.598;2023-09-08T05:58:02;6.10;;;5.50;;
6665;SDS011;3369;49.906;8.598;2023-09-08T06:00:27;5.43;;;4.93;;
6665;SDS011;3369;49.906;8.598;2023-09-08T06:02:53;6.37;;;4.43;;
6665;SDS011;3369;49.906;8.598;2023-09-08T06:05:18;6.63;;;4.87;;
6665;SDS011;3369;49.906;8.598;2023-09-08T06:07:44;5.03;;;4.53;;
6665;SDS011;3369;49.906;8.598;2023-09-08T06:10:10;5.47;;;4.97;;
6665;SDS011;3369;49.906;8.598;2023-09-08T06:12:35;5.50;;;4.87;;
6665;SDS011;3369;49.906;8.598;2023-09-08T06:15:04;5.30;;;4.80;;
6665;SDS011;3369;49.906;8.598;2023-09-08T06:17:30;5.20;;;4.77;;
6665;SDS011;3369;49.906;8.598;2023-09-08T06:19:56;5.17;;;4.67;;
6665;SDS011;3369;49.906;8.598;2023-09-08T06:22:21;5.33;;;4.83;;
6665;SDS011;3369;49.906;8.598;2023-09-08T06:24:47;6.03;;;5.10;;
6665;SDS011;3369;49.906;8.598;2023-09-08T06:27:14;6.30;;;4.57;;
6665;SDS011;3369;49.906;8.598;2023-09-08T06:29:40;4.70;;;4.20;;
6665;SDS011;3369;49.906;8.598;2023-09-08T06:32:08;5.40;;;4.90;;
6665;SDS011;3369;49.906;8.598;2023-09-08T06:34:34;6.40;;;4.33;;
6665;SDS011;3369;49.906;8.598;2023-09-08T06:37:00;5.57;;;5.07;;
6665;SDS011;3369;49.906;8.598;2023-09-08T06:39:27;5.00;;;4.10;;
6665;SDS011;3369;49.906;8.598;2023-09-08T06:41:53;5.00;;;4.43;;
6665;SDS011;3369;49.906;8.598;2023-09-08T06:44:21;6.13;;;4.57;;
6665;SDS011;3369;49.906;8.598;2023-09-08T06:46:47;4.43;;;4.10;;
6665;SDS011;3369;49.906;8.598;2023-09-08T06:49:13;4.47;;;4.10;;
6665;SDS011;3369;49.906;8.598;2023-09-08T06:51:38;4.73;;;4.33;;
6665;SDS011;3369;49.906;8.598;2023-09-08T06:54:04;4.00;;;3.70;;
6665;SDS011;3369;49.906;8.598;2023-09-08T06:56:30;4.93;;;4.43;;
6665;SDS011;3369;49.906;8.598;2023-09-08T06:58:56;4.10;;;3.80;;
6665;SDS011;3369;49.906;8.598;2023-09-08T07:01:25;5.07;;;4.30;;
6665;SDS011;3369;49.906;8.598;2023-09-08T07:03:50;4.60;;;4.20;;
6665;SDS011;3369;49.906;8.598;2023-09-08T07:06:16;4.67;;;4.13;;
6665;SDS011;3369;49.906;8.598;2023-09-08T07:08:42;4.47;;;4.07;;
6665;SDS011;3369;49.906;8.598;2023-09-08T07:11:08;4.70;;;4.30;;
6665;SDS011;3369;49.906;8.598;2023-09-08T07:13:34;7.60;;;4.80;;
6665;SDS011;3369;49.906;8.598;2023-09-08T07:16:00;4.30;;;3.87;;
6665;SDS011;3369;49.906;8.598;2023-09-08T07:18:26;4.60;;;4.20;;
6665;SDS011;3369;49.906;8.598;2023-09-08T07:20:52;4.50;;;4.20;;
6665;SDS011;3369;49.906;8.598;2023-09-08T07:23:17;4.40;;;4.00;;
6665;SDS011;3369;49.906;8.598;2023-09-08T07:25:47;4.40;;;4.00;;
6665;SDS011;3369;49.906;8.598;2023-09-08T07:28:13;5.35;;;4.85;;
6665;SDS011;3369;49.906;8.598;2023-09-08T07:30:39;4.90;;;3.87;;
6665;SDS011;3369;49.906;8.598;2023-09-08T07:33:05;5.95;;;4.30;;
6665;SDS011;3369;49.906;8.598;2023-09-08T07:35:31;4.90;;;4.28;;
6665;SDS011;3369;49.906;8.598;2023-09-08T07:37:57;4.53;;;4.10;;
6665;SDS011;3369;49.906;8.598;2023-09-08T07:40:23;6.70;;;4.70;;
6665;SDS011;3369;49.906;8.598;2023-09-08T07:42:49;5.68;;;4.72;;
6665;SDS011;3369;49.906;8.598;2023-09-08T07:45:15;4.82;;;4.30;;
6665;SDS011;3369;49.906;8.598;2023-09-08T07:47:41;8.18;;;4.63;;
6665;SDS011;3369;49.906;8.598;2023-09-08T07:50:23;5.75;;;4.75;;
6665;SDS011;3369;49.906;8.598;2023-09-08T07:52:54;7.22;;;4.70;;
6665;SDS011;3369;49.906;8.598;2023-09-08T07:55:21;6.45;;;4.57;;
6665;SDS011;3369;49.906;8.598;2023-09-08T07:57:48;7.45;;;4.43;;
6665;SDS011;3369;49.906;8.598;2023-09-08T08:00:14;5.93;;;4.40;;
6665;SDS011;3369;49.906;8.598;2023-09-08T08:02:54;5.18;;;4.45;;
6665;SDS011;3369;49.906;8.598;2023-09-08T08:05:21;5.20;;;4.45;;
6665;SDS011;3369;49.906;8.598;2023-09-08T08:07:47;4.80;;;4.28;;
6665;SDS011;3369;49.906;8.598;2023-09-08T08:10:13;5.03;;;4.43;;
6665;SDS011;3369;49.906;8.598;2023-09-08T08:12:39;6.90;;;4.85;;
6665;SDS011;3369;49.906;8.598;2023-09-08T08:15:06;7.18;;;4.60;;
6665;SDS011;3369;49.906;8.598;2023-09-08T08:17:35;4.95;;;4.45;;
6665;SDS011;3369;49.906;8.598;2023-09-08T08:20:02;4.68;;;4.18;;
6665;SDS011;3369;49.906;8.598;2023-09-08T08:22:34;5.07;;;4.18;;
6665;SDS011;3369;49.906;8.598;2023-09-08T08:25:02;4.18;;;3.78;;
6665;SDS011;3369;49.906;8.598;2023-09-08T08:27:29;4.45;;;4.05;;
6665;SDS011;3369;49.906;8.598;2023-09-08T08:29:58;7.32;;;4.90;;
6665;SDS011;3369;49.906;8.598;2023-09-08T08:32:25;5.18;;;4.68;;
6665;SDS011;3369;49.906;8.598;2023-09-08T08:34:52;4.70;;;4.18;;
6665;SDS011;3369;49.906;8.598;2023-09-08T08:37:18;7.22;;;4.40;;
6665;SDS011;3369;49.906;8.598;2023-09-08T08:39:43;5.55;;;4.20;;
6665;SDS011;3369;49.906;8.598;2023-09-08T08:42:10;6.07;;;4.82;;
6665;SDS011;3369;49.906;8.598;2023-09-08T08:44:37;5.10;;;4.60;;
6665;SDS011;3369;49.906;8.598;2023-09-08T08:47:03;5.20;;;4.50;;
6665;SDS011;3369;49.906;8.598;2023-09-08T08:49:32;5.03;;;4.20;;
6665;SDS011;3369;49.906;8.598;2023-09-08T08:51:58;6.03;;;4.90;;
6665;SDS011;3369;49.906;8.598;2023-09-08T08:54:28;6.30;;;4.55;;
6665;SDS011;3369;49.906;8.598;2023-09-08T08:56:55;4.18;;;3.78;;
6665;SDS011;3369;49.906;8.598;2023-09-08T08:59:21;5.22;;;4.53;;
6665;SDS011;3369;49.906;8.598;2023-09-08T09:01:48;4.78;;;4.35;;
6665;SDS011;3369;49.906;8.598;2023-09-08T09:04:14;6.75;;;4.10;;
6665;SDS011;3369;49.906;8.598;2023-09-08T09:06:41;4.80;;;4.00;;
6665;SDS011;3369;49.906;8.598;2023-09-08T09:09:07;4.95;;;4.22;;
6665;SDS011;3369;49.906;8.598;2023-09-08T09:11:35;6.57;;;4.18;;
6665;SDS011;3369;49.906;8.598;2023-09-08T09:14:01;8.43;;;4.80;;
6665;SDS011;3369;49.906;8.598;2023-09-08T09:16:28;4.57;;;4.07;;
6665;SDS011;3369;49.906;8.598;2023-09-08T09:21:20;3.90;;;3.53;;
6665;SDS011;3369;49.906;8.598;2023-09-08T09:23:47;3.83;;;3.53;;
6665;SDS011;3369;49.906;8.598;2023-09-08T09:26:22;4.75;;;4.32;;
6665;SDS011;3369;49.906;8.598;2023-09-08T09:28:49;3.70;;;3.40;;
6665;SDS011;3369;49.906;8.598;2023-09-08T09:31:17;4.38;;;4.03;;
6665;SDS011;3369;49.906;8.598;2023-09-08T09:33:43;3.78;;;3.47;;
6665;SDS011;3369;49.906;8.598;2023-09-08T09:36:10;6.90;;;4.43;;
6665;SDS011;3369;49.906;8.598;2023-09-08T09:38:46;4.60;;;4.10;;
6665;SDS011;3369;49.906;8.598;2023-09-08T09:41:12;4.90;;;4.07;;
6665;SDS011;3369;49.906;8.598;2023-09-08T09:43:38;4.47;;;4.07;;
6665;SDS011;3369;49.906;8.598;2023-09-08T09:46:06;3.78;;;3.47;;
6665;SDS011;3369;49.906;8.598;2023-09-08T09:48:33;3.78;;;3.47;;
6665;SDS011;3369;49.906;8.598;2023-09-08T09:51:14;3.97;;;3.58;;
6665;SDS011;3369;49.906;8.598;2023-09-08T09:53:44;4.13;;;3.70;;
6665;SDS011;3369;49.906;8.598;2023-09-08T09:56:11;4.40;;;3.92;;
6665;SDS011;3369;49.906;8.598;2023-09-08T09:58:38;6.57;;;4.07;;
6665;SDS011;3369;49.906;8.598;2023-09-08T10:01:05;5.20;;;3.40;;
6665;SDS011;3369;49.906;8.598;2023-09-08T10:03:31;5.82;;;4.07;;
6665;SDS011;3369;49.906;8.598;2023-09-08T10:05:58;4.25;;;3.90;;
6665;SDS011;3369;49.906;8.598;2023-09-08T10:08:24;4.22;;;3.75;;
6665;SDS011;3369;49.906;8.598;2023-09-08T10:10:50;3.85;;;3.55;;
6665;SDS011;3369;49.906;8.598;2023-09-08T10:13:38;4.50;;;4.10;;
6665;SDS011;3369;49.906;8.598;2023-09-08T10:16:08;4.35;;;3.95;;
6665;SDS011;3369;49.906;8.598;2023-09-08T10:18:34;6.38;;;3.70;;
6665;SDS011;3369;49.906;8.598;2023-09-08T10:21:04;3.75;;;3.42;;
6665;SDS011;3369;49.906;8.598;2023-09-08T10:26:05;7.18;;;3.90;;
6665;SDS011;3369;49.906;8.598;2023-09-08T10:28:34;4.18;;;3.78;;
6665;SDS011;3369;49.906;8.598;2023-09-08T10:31:01;4.07;;;3.58;;
6665;SDS011;3369;49.906;8.598;2023-09-08T10:33:28;4.43;;;4.10;;
6665;SDS011;3369;49.906;8.598;2023-09-08T10:35:55;4.35;;;3.95;;
6665;SDS011;3369;49.906;8.598;2023-09-08T10:40:53;3.67;;;3.38;;
6665;SDS011;3369;49.906;8.598;2023-09-08T10:43:45;3.53;;;3.22;;
6665;SDS011;3369;49.906;8.598;2023-09-08T10:46:21;4.65;;;3.78;;
6665;SDS011;3369;49.906;8.598;2023-09-08T10:48:47;3.90;;;3.50;;
6665;SDS011;3369;49.906;8.598;2023-09-08T10:51:14;4.90;;;3.75;;
6665;SDS011;3369;49.906;8.598;2023-09-08T10:53:41;4.18;;;3.78;;
6665;SDS011;3369;49.906;8.598;2023-09-08T10:56:06;4.03;;;3.60;;
6665;SDS011;3369;49.906;8.598;2023-09-08T10:58:33;3.95;;;3.63;;
6665;SDS011;3369;49.906;8.598;2023-09-08T11:01:07;5.15;;;3.90;;
6665;SDS011;3369;49.906;8.598;2023-09-08T11:06:03;4.45;;;4.05;;
6665;SDS011;3369;49.906;8.598;2023-09-08T11:08:37;4.20;;;3.80;;
6665;SDS011;3369;49.906;8.598;2023-09-08T11:11:06;4.25;;;3.85;;
6665;SDS011;3369;49.906;8.598;2023-09-08T11:13:32;4.18;;;3.78;;
6665;SDS011;3369;49.906;8.598;2023-09-08T11:15:58;4.40;;;3.95;;
6665;SDS011;3369;49.906;8.598;2023-09-08T11:18:30;4.35;;;4.03;;
6665;SDS011;3369;49.906;8.598;2023-09-08T11:20:57;4.65;;;3.78;;
6665;SDS011;3369;49.906;8.598;2023-09-08T11:23:23;3.97;;;3.67;;
6665;SDS011;3369;49.906;8.598;2023-09-08T11:25:49;4.15;;;3.58;;
6665;SDS011;3369;49.906;8.598;2023-09-08T11:28:22;3.88;;;3.55;;
6665;SDS011;3369;49.906;8.598;2023-09-08T11:30:48;4.13;;;3.80;;
6665;SDS011;3369;49.906;8.598;2023-09-08T11:33:15;4.00;;;3.60;;
6665;SDS011;3369;49.906;8.598;2023-09-08T11:35:43;3.95;;;3.65;;
6665;SDS011;3369;49.906;8.598;2023-09-08T11:38:11;4.60;;;4.20;;
6665;SDS011;3369;49.906;8.598;2023-09-08T11:40:37;3.38;;;3.08;;
6665;SDS011;3369;49.906;8.598;2023-09-08T11:43:03;3.80;;;3.50;;
6665;SDS011;3369;49.906;8.598;2023-09-08T11:45:30;3.60;;;3.30;;
6665;SDS011;3369;49.906;8.598;2023-09-08T11:47:59;3.28;;;3.08;;
6665;SDS011;3369;49.906;8.598;2023-09-08T11:50:25;3.97;;;3.67;;
6665;SDS011;3369;49.906;8.598;2023-09-08T11:52:51;5.22;;;3.60;;
6665;SDS011;3369;49.906;8.598;2023-09-08T11:55:18;3.70;;;3.40;;
6665;SDS011;3369;49.906;8.598;2023-09-08T11:57:51;4.03;;;3.72;;
6665;SDS011;3369;49.906;8.598;2023-09-08T12:00:26;3.83;;;3.40;;
6665;SDS011;3369;49.906;8.598;2023-09-08T12:02:52;4.22;;;3.83;;
6665;SDS011;3369;49.906;8.598;2023-09-08T12:05:26;4.53;;;3.53;;
6665;SDS011;3369;49.906;8.598;2023-09-08T12:07:56;3.80;;;3.50;;
6665;SDS011;3369;49.906;8.598;2023-09-08T12:10:23;3.92;;;3.53;;
6665;SDS011;3369;49.906;8.598;2023-09-08T12:12:51;3.75;;;3.22;;
6665;SDS011;3369;49.906;8.598;2023-09-08T12:18:03;3.85;;;3.55;;
6665;SDS011;3369;49.906;8.598;2023-09-08T12:20:34;4.50;;;3.53;;
6665;SDS011;3369;49.906;8.598;2023-09-08T12:23:02;3.92;;;3.53;;
6665;SDS011;3369;49.906;8.598;2023-09-08T12:25:43;3.90;;;3.25;;
6665;SDS011;3369;49.906;8.598;2023-09-08T12:28:20;3.72;;;3.42;;
6665;SDS011;3369;49.906;8.598;2023-09-08T12:30:46;3.40;;;3.10;;
6665;SDS011;3369;49.906;8.598;2023-09-08T12:33:12;3.95;;;3.63;;
6665;SDS011;3369;49.906;8.598;2023-09-08T12:35:42;3.83;;;3.53;;
6665;SDS011;3369;49.906;8.598;2023-09-08T12:38:09;3.75;;;3.20;;
6665;SDS011;3369;49.906;8.598;2023-09-08T12:40:35;4.13;;;3.10;;
6665;SDS011;3369;49.906;8.598;2023-09-08T12:43:03;3.30;;;3.08;;
6665;SDS011;3369;49.906;8.598;2023-09-08T12:45:29;3.40;;;3.20;;
6665;SDS011;3369;49.906;8.598;2023-09-08T12:47:57;3.95;;;2.85;;
6665;SDS011;3369;49.906;8.598;2023-09-08T12:50:25;3.72;;;3.42;;
6665;SDS011;3369;49.906;8.598;2023-09-08T12:52:51;4.05;;;3.63;;
6665;SDS011;3369;49.906;8.598;2023-09-08T12:55:16;3.78;;;3.47;;
6665;SDS011;3369;49.906;8.598;2023-09-08T12:57:42;3.22;;;3.03;;
6665;SDS011;3369;49.906;8.598;2023-09-08T13:00:08;3.95;;;3.65;;
6665;SDS011;3369;49.906;8.598;2023-09-08T13:02:34;3.17;;;2.97;;
6665;SDS011;3369;49.906;8.598;2023-09-08T13:05:00;3.63;;;3.33;;
6665;SDS011;3369;49.906;8.598;2023-09-08T13:07:26;4.20;;;3.80;;
6665;SDS011;3369;49.906;8.598;2023-09-08T13:09:52;4.00;;;3.60;;
6665;SDS011;3369;49.906;8.598;2023-09-08T13:12:18;3.90;;;3.60;;
6665;SDS011;3369;49.906;8.598;2023-09-08T13:14:44;5.15;;;3.25;;
6665;SDS011;3369;49.906;8.598;2023-09-08T13:17:10;3.90;;;3.60;;
6665;SDS011;3369;49.906;8.598;2023-09-08T13:19:36;4.15;;;3.20;;
6665;SDS011;3369;49.906;8.598;2023-09-08T13:22:03;4.22;;;3.88;;
6665;SDS011;3369;49.906;8.598;2023-09-08T13:24:29;3.90;;;3.60;;
6665;SDS011;3369;49.906;8.598;2023-09-08T13:26:55;4.25;;;3.50;;
6665;SDS011;3369;49.906;8.598;2023-09-08T13:29:21;4.22;;;3.83;;
6665;SDS011;3369;49.906;8.598;2023-09-08T13:31:47;5.93;;;3.95;;
6665;SDS011;3369;49.906;8.598;2023-09-08T13:34:13;3.90;;;3.60;;
6665;SDS011;3369;49.906;8.598;2023-09-08T13:36:39;3.78;;;3.45;;
6665;SDS011;3369;49.906;8.598;2023-09-08T13:39:05;3.58;;;3.28;;
6665;SDS011;3369;49.906;8.598;2023-09-08T13:44:33;3.65;;;3.35;;
6665;SDS011;3369;49.906;8.598;2023-09-08T13:46:59;3.42;;;3.20;;
6665;SDS011;3369;49.906;8.598;2023-09-08T13:49:25;4.90;;;3.35;;
6665;SDS011;3369;49.906;8.598;2023-09-08T13:51:51;4.00;;;3.60;;
6665;SDS011;3369;49.906;8.598;2023-09-08T13:54:18;3.72;;;3.42;;
6665;SDS011;3369;49.906;8.598;2023-09-08T13:56:44;4.07;;;3.67;;
6665;SDS011;3369;49.906;8.598;2023-09-08T13:59:10;3.78;;;3.42;;
6665;SDS011;3369;49.906;8.598;2023-09-08T14:01:36;4.38;;;3.65;;
6665;SDS011;3369;49.906;8.598;2023-09-08T14:04:03;3.75;;;3.45;;
6665;SDS011;3369;49.906;8.598;2023-09-08T14:06:31;3.63;;;3.33;;
6665;SDS011;3369;49.906;8.598;2023-09-08T14:08:57;3.45;;;3.15;;
6665;SDS011;3369;49.906;8.598;2023-09-08T14:11:23;3.80;;;3.40;;
6665;SDS011;3369;49.906;8.598;2023-09-08T14:13:48;3.40;;;3.20;;
6665;SDS011;3369;49.906;8.598;2023-09-08T14:16:14;3.97;;;3.67;;
6665;SDS011;3369;49.906;8.598;2023-09-08T14:18:40;3.65;;;3.35;;
6665;SDS011;3369;49.906;8.598;2023-09-08T14:21:06;3.30;;;3.05;;
6665;SDS011;3369;49.906;8.598;2023-09-08T14:23:32;3.30;;;3.00;;
6665;SDS011;3369;49.906;8.598;2023-09-08T14:26:02;3.00;;;2.80;;
6665;SDS011;3369;49.906;8.598;2023-09-08T14:28:28;3.10;;;2.90;;
6665;SDS011;3369;49.906;8.598;2023-09-08T14:30:57;3.25;;;2.97;;
6665;SDS011;3369;49.906;8.598;2023-09-08T14:33:23;3.22;;;2.92;;
6665;SDS011;3369;49.906;8.598;2023-09-08T14:35:48;3.05;;;2.85;;
6665;SDS011;3369;49.906;8.598;2023-09-08T14:38:16;3.22;;;2.92;;
6665;SDS011;3369;49.906;8.598;2023-09-08T14:40:42;3.05;;;2.85;;
6665;SDS011;3369;49.906;8.598;2023-09-08T14:43:08;3.30;;;3.00;;
6665;SDS011;3369;49.906;8.598;2023-09-08T14:45:33;3.00;;;2.80;;
6665;SDS011;3369;49.906;8.598;2023-09-08T14:47:59;4.10;;;3.50;;
6665;SDS011;3369;49.906;8.598;2023-09-08T14:50:25;3.30;;;3.00;;
6665;SDS011;3369;49.906;8.598;2023-09-08T14:52:50;4.45;;;3.05;;
6665;SDS011;3369;49.906;8.598;2023-09-08T14:55:16;2.92;;;2.72;;
6665;SDS011;3369;49.906;8.598;2023-09-08T14:57:42;3.90;;;3.60;;
6665;SDS011;3369;49.906;8.598;2023-09-08T15:00:07;3.30;;;3.03;;
6665;SDS011;3369;49.906;8.598;2023-09-08T15:02:34;3.22;;;3.03;;
6665;SDS011;3369;49.906;8.598;2023-09-08T15:05:00;2.95;;;2.75;;
6665;SDS011;3369;49.906;8.598;2023-09-08T15:07:26;3.50;;;3.20;;
6665;SDS011;3369;49.906;8.598;2023-09-08T15:09:51;2.65;;;2.45;;
6665;SDS011;3369;49.906;8.598;2023-09-08T15:12:17;2.90;;;2.70;;
6665;SDS011;3369;49.906;8.598;2023-09-08T15:14:43;3.00;;;2.80;;
6665;SDS011;3369;49.906;8.598;2023-09-08T15:17:10;3.15;;;2.75;;
6665;SDS011;3369;49.906;8.598;2023-09-08T15:19:37;2.75;;;2.55;;
6665;SDS011;3369;49.906;8.598;2023-09-08T15:22:03;3.65;;;2.95;;
6665;SDS011;3369;49.906;8.598;2023-09-08T15:24:28;2.80;;;2.50;;
6665;SDS011;3369;49.906;8.598;2023-09-08T15:26:54;3.63;;;2.95;;
6665;SDS011;3369;49.906;8.598;2023-09-08T15:29:22;3.13;;;2.92;;
6665;SDS011;3369;49.906;8.598;2023-09-08T15:31:48;3.25;;;3.00;;